• Join FlightAware (Why Join?)
  • Login
  • US Flag 
03:11PM EDT


 

Airport Tracker/Info


-or-


 

Live Flight TrackerFlight Track Log ✈ SKW6345 ✈ 29-Dec-2013 ✈ KASE - KDEN

Flight Track Log - Related Links

Times and Time Zones

All times are in EST time to prevent confusion due to time zone crossing. See the SKW6345 flight status page for this flight to view local times or setup timezone preferences in your user account.

Time Position Orientation Groundspeed Altitude Reporting Facility
EST Latitude Longitude Course Direction KTS MPH feet Rate Location/Type
12:39PM 39.2467 -106.8708 101° East 165 190 25,000  Level Denver Center
12:40PM 39.2756 -106.9381 299° West 231 266 11,300 -5,280 Descending Denver Center
12:41PM 39.2972 -107.0206 289° West 236 272 14,100 2,460 Climbing Denver Center
12:42PM 39.3333 -106.4255 90° East  Level FlightAware Approximate
12:42PM 39.3494 -107.0483 338° Northwest 232 267 16,500  Level Denver Center
12:43PM 39.3242 -106.3067 101° East  Level FlightAware Approximate
12:43PM 39.3469 -106.9547 92° East 291 335 18,300  Level Denver Center
12:44PM 39.3060 -106.1890 101° East  Level FlightAware Approximate
12:44PM 39.3500 -106.8497 88° East 298 343 19,800  Level Denver Center
12:45PM 39.3508 -106.7139 90° East 356 410 20,700 540 Climbing Denver Center
12:46PM 39.3483 -106.5519 91° East 403 464 21,000 120 Climbing Denver Center
12:47PM 39.3422 -106.4003 93° East 436 502 21,000  Level Denver Center
12:48PM 39.3361 -106.2261 93° East 434 499 21,000  Level Denver Center
12:49PM 39.3297 -106.0578 93° East 436 502 21,000  Level Denver Center
12:50PM 39.3228 -105.9044 93° East 431 496 21,000  Level Denver Center
12:52PM 39.3172 -105.7556 93° East 420 483 21,000 -180 Level Denver Center
12:53PM 39.3267 -105.6383 84° East 333 383 20,700 -300 Descending Denver Center
12:54PM 39.3736 -105.5322 60° Northeast 337 388 20,400 -840 Descending Denver Center
12:55PM 39.4561 -105.3686 57° Northeast 399 459 18,800 -1,440 Descending Denver Center
12:56PM 39.5158 -105.2519 56° Northeast 393 452 17,200 -1,320 Descending Denver Center
12:57PM 39.5767 -105.1394 55° Northeast 384 442 16,100 -1,080 Descending Denver Center
12:58PM 39.6383 -105.0186 56° Northeast 376 433 15,000 -1,020 Descending Denver Center
12:59PM 39.6975 -104.9044 56° Northeast 381 438 14,000 -1,320 Descending Denver Center
01:00PM 39.7853 -104.8414 29° Northeast 344 396 12,300 -1,500 Descending Denver Center
01:01PM 39.8683 -104.8406 360° North 297 342 11,000 -720 Descending Denver Center
01:03PM 40.0000 -104.8333 North 241 277 10,200 -660 Descending Denver TRACON
01:04PM 40.0667 -104.8000 21° North 223 257 9,100 -1,200 Descending Denver TRACON
01:05PM 40.0500 -104.7333 108° East 248 285 7,900 -900 Descending Denver TRACON
01:06PM 40.0000 -104.7000 153° Southeast 221 254 7,500 -720 Descending Denver TRACON
01:07PM 39.9667 -104.7000 180° South 154 177 6,700 -900 Descending Denver TRACON
01:08PM 39.9167 -104.7000 180° South 138 159 5,900 -600 Descending Denver TRACON
01:09PM 39.8750 -104.6967 176° South 119 137 5,300 -420 Descending Denver Center